Time;durP1;ratioP1;P1;durP2;ratioP2;P2;SDS_P1;SDS_P2;PMS_P1;PMS_P2;Temp;Humidity;BMP_temperature;BMP_pressure;BME280_temperature;BME280_humidity;BME280_pressure;Samples;Min_cycle;Max_cycle;Signal;HPM_P1;HPM_P2
2021/06/14 00:00:42;;;;;;;6.76;6.10;;;;;;;19.14;72.18;100375.11;463917;111;923071;-68
2021/06/14 00:01:47;;;;;;;6.46;5.86;;;;;;;19.14;72.22;100373.17;463773;112;923791;-69
2021/06/14 00:02:51;;;;;;;8.49;5.71;;;;;;;19.16;72.23;100372.91;464067;112;922533;-69
2021/06/14 00:03:55;;;;;;;7.71;5.74;;;;;;;19.17;72.22;100371.81;462995;112;930496;-68
2021/06/14 00:04:59;;;;;;;7.71;5.96;;;;;;;19.18;72.18;100379.00;463803;112;930563;-68
2021/06/14 00:06:03;;;;;;;10.13;5.67;;;;;;;19.19;72.19;100369.58;463218;112;922842;-66
2021/06/14 00:07:07;;;;;;;8.79;5.58;;;;;;;19.19;72.14;100361.28;463649;112;923051;-69
2021/06/14 00:08:17;;;;;;;6.58;5.96;;;;;;;19.18;72.09;100359.66;464214;112;922919;-68
2021/06/14 00:09:22;;;;;;;6.90;6.01;;;;;;;19.18;72.09;100367.11;463498;112;930472;-66
2021/06/14 00:10:28;;;;;;;6.53;5.76;;;;;;;19.16;72.06;100370.14;463137;112;930480;-67
2021/06/14 00:11:32;;;;;;;9.59;6.34;;;;;;;19.13;72.05;100367.95;463155;112;922579;-68
2021/06/14 00:12:36;;;;;;;8.70;6.24;;;;;;;19.11;72.06;100367.38;463815;112;923199;-67
2021/06/14 00:13:41;;;;;;;8.08;6.27;;;;;;;19.09;72.08;100358.52;463272;112;923226;-67
2021/06/14 00:14:44;;;;;;;9.94;6.32;;;;;;;19.07;72.20;100367.12;463743;112;923961;-68
2021/06/14 00:15:49;;;;;;;7.26;6.55;;;;;;;19.05;72.27;100358.27;464566;112;922444;-69
2021/06/14 00:16:54;;;;;;;7.57;6.86;;;;;;;19.07;72.38;100361.59;463914;112;922622;-68
2021/06/14 00:18:12;;;;;;;7.68;6.89;;;;;;;19.07;72.45;100357.99;463504;112;922637;-68
2021/06/14 00:19:20;;;;;;;8.44;6.33;;;;;;;19.08;72.43;100357.70;464887;112;922466;-68
2021/06/14 00:20:25;;;;;;;8.07;6.97;;;;;;;19.09;72.32;100355.77;456475;114;923932;-67
2021/06/14 00:21:30;;;;;;;12.92;6.81;;;;;;;19.08;72.26;100351.34;457195;112;922511;-67
2021/06/14 00:22:34;;;;;;;7.24;6.29;;;;;;;19.08;72.22;100356.86;464388;112;923242;-67
2021/06/14 00:23:38;;;;;;;10.02;6.87;;;;;;;19.06;72.17;100362.69;464814;112;922821;-68
2021/06/14 00:24:42;;;;;;;7.86;6.82;;;;;;;19.04;72.11;100362.13;464065;112;930747;-68
2021/06/14 00:25:46;;;;;;;7.96;7.21;;;;;;;19.02;72.12;100358.80;464385;111;923079;-69
2021/06/14 00:26:51;;;;;;;11.53;6.33;;;;;;;19.00;72.09;100360.20;463701;112;924065;-68
2021/06/14 00:27:55;;;;;;;7.86;6.82;;;;;;;18.98;72.14;100359.63;464225;112;922568;-69
2021/06/14 00:29:00;;;;;;;8.28;6.58;;;;;;;18.96;72.24;100359.09;463781;112;922969;-68
2021/06/14 00:30:07;;;;;;;8.21;6.58;;;;;;;18.94;72.26;100364.05;463719;112;922630;-69
2021/06/14 00:31:11;;;;;;;7.58;6.67;;;;;;;18.93;72.29;100354.94;463913;112;923032;-67
2021/06/14 00:32:15;;;;;;;7.12;6.44;;;;;;;18.95;72.35;100360.20;463247;112;924100;-68
2021/06/14 00:33:21;;;;;;;7.54;6.85;;;;;;;18.96;72.40;100356.33;463948;112;930655;-68
2021/06/14 00:34:25;;;;;;;8.48;7.21;;;;;;;18.97;72.39;100356.03;463548;112;922602;-69
2021/06/14 00:35:31;;;;;;;7.16;6.08;;;;;;;18.97;72.33;100360.73;463577;112;923980;-68
2021/06/14 00:36:36;;;;;;;9.16;6.80;;;;;;;18.95;72.28;100361.02;462784;112;926031;-69
2021/06/14 00:37:40;;;;;;;7.76;6.54;;;;;;;18.94;72.21;100355.77;463499;112;922645;-68
2021/06/14 00:38:44;;;;;;;7.98;6.57;;;;;;;18.93;72.18;100354.94;464354;112;923310;-69
2021/06/14 00:39:48;;;;;;;7.71;7.00;;;;;;;18.92;72.23;100363.48;464134;112;922388;-69
2021/06/14 00:40:53;;;;;;;7.22;6.61;;;;;;;18.90;72.28;100362.95;464038;112;931897;-68
2021/06/14 00:41:58;;;;;;;7.82;6.55;;;;;;;18.88;72.31;100365.98;463908;112;923983;-67
2021/06/14 00:43:02;;;;;;;7.47;6.63;;;;;;;18.88;72.40;100365.98;463317;112;925374;-68
2021/06/14 00:44:06;;;;;;;8.16;7.46;;;;;;;18.88;72.38;100365.15;463662;111;923962;-69
2021/06/14 00:45:15;;;;;;;7.34;6.34;;;;;;;18.86;72.39;100367.34;464346;112;925892;-69
2021/06/14 00:46:20;;;;;;;7.41;6.59;;;;;;;18.86;72.45;100361.83;463357;112;931968;-68
2021/06/14 00:47:24;;;;;;;7.85;7.10;;;;;;;18.85;72.41;100362.95;465059;111;930420;-68
2021/06/14 00:48:28;;;;;;;10.42;7.24;;;;;;;18.83;72.45;100357.69;463938;112;922590;-70
2021/06/14 00:49:32;;;;;;;7.87;7.10;;;;;;;18.82;72.42;100366.25;464280;112;922643;-68
2021/06/14 00:50:48;;;;;;;7.61;6.88;;;;;;;18.79;72.38;100364.88;463663;112;922984;-68
2021/06/14 00:51:52;;;;;;;6.93;6.12;;;;;;;18.78;72.34;100365.14;464778;111;923224;-71
2021/06/14 00:52:56;;;;;;;7.22;6.51;;;;;;;18.75;72.32;100363.75;455783;112;922922;-68
2021/06/14 00:54:01;;;;;;;11.35;6.98;;;;;;;18.73;72.31;100364.04;457626;112;922570;-69
2021/06/14 00:55:08;;;;;;;7.44;6.79;;;;;;;18.71;72.37;100369.00;463640;112;922495;-70
2021/06/14 00:56:13;;;;;;;8.71;7.94;;;;;;;18.70;72.46;100367.33;464163;112;922619;-71
2021/06/14 00:57:19;;;;;;;9.28;7.21;;;;;;;18.68;72.49;100364.03;463707;112;922675;-69
2021/06/14 00:58:23;;;;;;;8.07;7.06;;;;;;;18.68;72.55;100360.44;463893;112;922999;-67
2021/06/14 00:59:28;;;;;;;7.63;6.54;;;;;;;18.68;72.67;100363.20;463731;112;923031;-68
2021/06/14 01:00:33;;;;;;;8.83;7.78;;;;;;;18.71;72.68;100365.41;464201;112;923728;-67
2021/06/14 01:01:38;;;;;;;7.20;6.47;;;;;;;18.73;72.70;100363.21;463616;112;922874;-67
2021/06/14 01:02:42;;;;;;;7.52;6.82;;;;;;;18.74;72.64;100357.39;464025;112;922540;-70
2021/06/14 01:03:48;;;;;;;9.58;7.17;;;;;;;18.75;72.59;100361.81;464630;112;930522;-68
2021/06/14 01:04:51;;;;;;;8.24;7.41;;;;;;;18.79;72.59;100364.05;465327;112;922507;-68
2021/06/14 01:05:58;;;;;;;10.06;7.10;;;;;;;18.80;72.48;100365.70;465318;112;930460;-68
2021/06/14 01:07:04;;;;;;;10.06;7.98;;;;;;;18.80;72.36;100360.19;464759;112;930450;-68
2021/06/14 01:08:09;;;;;;;11.03;8.09;;;;;;;18.77;72.27;100363.48;455695;114;924792;-67
2021/06/14 01:09:13;;;;;;;9.06;8.23;;;;;;;18.73;72.28;100366.80;457212;112;925641;-69
2021/06/14 01:10:21;;;;;;;10.76;9.14;;;;;;;18.70;72.28;100366.50;464390;112;926182;-69
2021/06/14 01:11:48;;;;;;;11.19;10.11;;;;;;;18.66;72.32;100363.47;463686;112;923023;-69
2021/06/14 01:13:12;;;;;;;12.90;10.87;;;;;;;18.62;72.33;100367.05;464274;111;924545;-68
2021/06/14 01:14:45;;;;;;;14.33;11.32;;;;;;;18.58;72.36;100363.98;464623;112;923512;-68
2021/06/14 01:16:03;;;;;;;12.37;11.03;;;;;;;18.54;72.42;100359.26;464888;112;925498;-69
2021/06/14 01:17:20;;;;;;;11.34;10.28;;;;;;;18.48;72.50;100368.63;465185;112;923255;-68
2021/06/14 01:18:27;;;;;;;12.58;10.75;;;;;;;18.42;72.66;100366.95;464015;112;926339;-70
2021/06/14 01:20:03;;;;;;;15.33;10.06;;;;;;;18.38;72.75;100368.59;464893;112;922613;-69
2021/06/14 01:21:14;;;;;;;14.17;10.37;;;;;;;18.32;72.82;100357.55;464180;112;922835;-68
2021/06/14 01:22:54;;;;;;;12.13;10.58;;;;;;;18.28;73.00;100361.12;464410;111;922535;-68
2021/06/14 01:24:05;;;;;;;14.16;10.30;;;;;;;18.27;73.25;100367.74;459261;114;926825;-68
2021/06/14 01:25:22;;;;;;;13.94;10.68;;;;;;;18.28;73.50;100353.68;459140;111;924147;-66
2021/06/14 01:26:30;;;;;;;12.78;10.78;;;;;;;18.30;73.55;100359.73;464914;111;922877;-69
2021/06/14 01:27:41;;;;;;;12.23;9.94;;;;;;;18.32;73.55;100351.19;464758;111;926546;-67
2021/06/14 01:28:56;;;;;;;11.45;10.52;;;;;;;18.34;73.52;100349.84;463117;112;923969;-68
2021/06/14 01:30:01;;;;;;;11.71;9.44;;;;;;;18.34;73.41;100357.28;464870;112;924039;-69
2021/06/14 01:31:06;;;;;;;10.14;9.31;;;;;;;18.32;73.26;100352.03;463485;111;924812;-67
2021/06/14 01:32:10;;;;;;;10.15;8.75;;;;;;;18.29;73.22;100354.51;464240;111;926049;-67
2021/06/14 01:33:17;;;;;;;13.24;9.69;;;;;;;18.26;73.16;100355.87;464771;112;922973;-69
2021/06/14 01:34:26;;;;;;;10.18;9.00;;;;;;;18.23;73.18;100356.42;463812;112;922557;-67
2021/06/14 01:35:34;;;;;;;9.53;8.29;;;;;;;18.21;73.21;100357.78;464903;112;922613;-66
2021/06/14 01:36:41;;;;;;;10.42;8.07;;;;;;;18.19;73.23;100354.48;464113;112;922859;-69
2021/06/14 01:37:48;;;;;;;10.24;8.24;;;;;;;18.17;73.29;100359.42;464718;112;922934;-67
2021/06/14 01:38:54;;;;;;;9.07;8.22;;;;;;;18.14;73.33;100358.02;464156;112;924619;-68
2021/06/14 01:39:59;;;;;;;9.73;8.82;;;;;;;18.11;73.37;100355.82;464895;111;922540;-68
2021/06/14 01:41:06;;;;;;;9.57;8.69;;;;;;;18.10;73.52;100361.59;464151;112;922981;-67
2021/06/14 01:42:12;;;;;;;9.76;8.83;;;;;;;18.10;73.73;100359.67;464604;112;924222;-67
2021/06/14 01:43:20;;;;;;;9.80;8.80;;;;;;;18.13;73.89;100358.31;455924;114;923039;-67
2021/06/14 01:44:26;;;;;;;12.51;9.21;;;;;;;18.16;73.85;100360.52;455616;112;922913;-70
2021/06/14 01:45:32;;;;;;;9.17;8.34;;;;;;;18.19;73.82;100362.76;461197;113;922705;-67
2021/06/14 01:46:38;;;;;;;10.56;9.49;;;;;;;18.22;73.81;100363.03;450087;116;922628;-69
2021/06/14 01:47:45;;;;;;;11.60;8.66;;;;;;;18.26;73.71;100366.08;450679;114;922537;-67
2021/06/14 01:48:51;;;;;;;10.16;8.37;;;;;;;18.29;73.69;100362.79;437500;119;922649;-69
2021/06/14 01:49:55;;;;;;;15.35;9.58;;;;;;;18.32;73.59;100370.52;453545;114;922569;-67
2021/06/14 01:51:00;;;;;;;9.28;8.28;;;;;;;18.34;73.45;100373.84;456884;112;922682;-69
2021/06/14 01:52:04;;;;;;;13.50;9.42;;;;;;;18.35;73.38;100375.51;464445;112;923167;-68
2021/06/14 01:53:09;;;;;;;9.85;8.86;;;;;;;18.36;73.35;100374.38;464197;111;922449;-68
2021/06/14 01:54:14;;;;;;;11.45;9.53;;;;;;;18.39;73.33;100376.62;464543;112;922585;-67
2021/06/14 01:55:29;;;;;;;13.07;9.58;;;;;;;18.41;73.30;100374.43;463926;112;930530;-69
2021/06/14 01:56:44;;;;;;;10.51;9.49;;;;;;;18.44;73.23;100376.63;463853;112;923173;-70
2021/06/14 01:57:51;;;;;;;11.91;9.26;;;;;;;18.46;73.16;100371.68;463877;111;930609;-72
2021/06/14 01:58:59;;;;;;;12.78;9.69;;;;;;;18.50;73.10;100371.95;464187;112;922419;-70
2021/06/14 02:00:05;;;;;;;12.78;9.11;;;;;;;18.51;73.08;100373.63;464080;112;922464;-68
2021/06/14 02:01:19;;;;;;;10.82;9.78;;;;;;;18.53;73.01;100374.98;464559;112;923065;-68
2021/06/14 02:02:26;;;;;;;11.54;9.61;;;;;;;18.55;72.94;100370.07;464170;112;927014;-68
2021/06/14 02:03:31;;;;;;;10.58;9.62;;;;;;;18.58;72.88;100376.99;463634;112;923982;-69
2021/06/14 02:04:48;;;;;;;15.98;9.26;;;;;;;18.60;72.85;100372.84;461837;112;922617;-68
2021/06/14 02:06:01;;;;;;;10.66;9.22;;;;;;;18.61;72.67;100374.50;462244;112;924125;-67
2021/06/14 02:07:05;;;;;;;11.00;9.96;;;;;;;18.61;72.51;100374.50;464618;112;925142;-69
2021/06/14 02:08:12;;;;;;;9.85;8.93;;;;;;;18.60;72.46;100374.77;464361;112;922537;-69
2021/06/14 02:09:19;;;;;;;12.96;9.95;;;;;;;18.57;72.40;100376.16;463085;112;924007;-68
2021/06/14 02:10:24;;;;;;;10.73;9.58;;;;;;;18.53;72.41;100372.23;463508;112;926632;-68
2021/06/14 02:11:31;;;;;;;10.95;9.82;;;;;;;18.49;72.41;100376.64;462952;112;924076;-69
2021/06/14 02:12:39;;;;;;;11.37;9.89;;;;;;;18.44;72.47;100379.39;463527;112;925204;-69
2021/06/14 02:13:45;;;;;;;11.87;9.67;;;;;;;18.41;72.61;100379.12;462709;112;924075;-68
2021/06/14 02:14:50;;;;;;;14.99;9.62;;;;;;;18.38;72.76;100380.48;462829;112;923988;-69
2021/06/14 02:15:54;;;;;;;10.19;9.20;;;;;;;18.37;72.94;100384.33;464778;112;922510;-69
2021/06/14 02:17:15;;;;;;;10.19;9.00;;;;;;;18.37;73.06;100384.33;462855;112;922411;-69
2021/06/14 02:18:23;;;;;;;19.97;10.43;;;;;;;18.39;73.14;100387.66;463480;112;925983;-67
2021/06/14 02:19:26;;;;;;;13.84;9.92;;;;;;;18.40;73.19;100388.50;463216;112;922762;-67
2021/06/14 02:20:30;;;;;;;13.20;8.72;;;;;;;18.39;73.15;100392.34;464077;112;926040;-68
2021/06/14 02:21:35;;;;;;;16.62;11.04;;;;;;;18.39;73.12;100397.88;463430;112;924519;-68
2021/06/14 02:22:40;;;;;;;15.86;10.28;;;;;;;18.36;73.16;100393.70;464457;112;922362;-69
2021/06/14 02:23:44;;;;;;;12.20;9.74;;;;;;;18.33;73.22;100389.58;463105;112;930427;-68
2021/06/14 02:24:48;;;;;;;14.07;10.71;;;;;;;18.31;73.32;100397.28;463901;112;923986;-69
2021/06/14 02:25:54;;;;;;;11.63;10.08;;;;;;;18.30;73.33;100395.62;462858;112;924697;-68
2021/06/14 02:26:59;;;;;;;11.81;10.60;;;;;;;18.28;73.41;100397.00;463393;112;923049;-66
2021/06/14 02:28:03;;;;;;;11.94;9.94;;;;;;;18.27;73.51;100401.69;464835;112;932847;-66
2021/06/14 02:29:08;;;;;;;14.80;10.96;;;;;;;18.27;73.56;100403.63;462503;113;924009;-67
2021/06/14 02:30:16;;;;;;;17.98;10.73;;;;;;;18.26;73.61;100400.02;461742;112;925690;-69
2021/06/14 02:31:21;;;;;;;14.72;10.57;;;;;;;18.26;73.67;100407.47;463737;112;923337;-68
2021/06/14 02:32:26;;;;;;;14.92;11.27;;;;;;;18.25;73.71;100409.40;463947;112;922681;-69
2021/06/14 02:33:31;;;;;;;20.84;11.99;;;;;;;18.25;73.86;100403.88;463557;112;922966;-68
2021/06/14 02:34:38;;;;;;;12.23;10.54;;;;;;;18.27;73.94;100406.37;461754;112;922560;-69
2021/06/14 02:35:42;;;;;;;17.96;10.96;;;;;;;18.27;73.99;100409.14;456534;114;922575;-67
2021/06/14 02:36:47;;;;;;;15.87;10.16;;;;;;;18.29;74.08;100405.02;457035;112;922991;-68
2021/06/14 02:38:03;;;;;;;16.79;10.85;;;;;;;18.31;74.15;100413.02;463294;112;930273;-69
2021/06/14 02:39:10;;;;;;;15.94;11.54;;;;;;;18.33;74.10;100408.90;463255;112;922966;-69
2021/06/14 02:40:15;;;;;;;12.12;10.63;;;;;;;18.33;74.06;100403.37;463179;112;922911;-69
2021/06/14 02:41:21;;;;;;;18.24;9.66;;;;;;;18.36;73.97;100401.98;463563;112;922610;-67
2021/06/14 02:42:26;;;;;;;11.54;10.01;;;;;;;18.34;73.92;100399.52;455443;115;922491;-69
2021/06/14 02:43:31;;;;;;;14.09;10.46;;;;;;;18.34;73.92;100396.77;443493;117;922500;-69
2021/06/14 02:44:35;;;;;;;16.51;10.18;;;;;;;18.34;73.93;100404.21;459702;112;923757;-69
2021/06/14 02:45:42;;;;;;;15.50;9.43;;;;;;;18.33;73.87;100402.55;464727;112;922511;-69
2021/06/14 02:46:48;;;;;;;10.69;9.54;;;;;;;18.32;73.87;100395.36;463129;112;922622;-69
2021/06/14 02:47:54;;;;;;;10.35;9.18;;;;;;;18.31;73.82;100390.93;463102;112;922715;-69
2021/06/14 02:48:59;;;;;;;13.74;10.79;;;;;;;18.30;73.88;100394.81;464209;111;922607;-67
2021/06/14 02:50:05;;;;;;;19.08;9.65;;;;;;;18.29;73.86;100405.02;464175;112;922591;-70
2021/06/14 02:51:09;;;;;;;11.52;9.95;;;;;;;18.30;73.81;100403.09;463955;112;922493;-68
2021/06/14 02:52:16;;;;;;;12.52;10.08;;;;;;;18.31;73.76;100402.80;463161;112;924129;-68
2021/06/14 02:53:23;;;;;;;13.91;9.93;;;;;;;18.33;73.75;100394.27;464952;112;922735;-69
2021/06/14 02:54:31;;;;;;;11.12;9.24;;;;;;;18.34;73.78;100401.45;464086;112;922658;-67
2021/06/14 02:55:38;;;;;;;12.12;9.70;;;;;;;18.38;73.81;100401.73;462895;112;924617;-66
2021/06/14 02:56:44;;;;;;;11.52;9.40;;;;;;;18.40;73.85;100402.30;453648;115;922743;-68
2021/06/14 02:57:51;;;;;;;11.82;9.34;;;;;;;18.43;73.80;100405.34;456183;112;922613;-69
2021/06/14 02:58:55;;;;;;;12.03;9.33;;;;;;;18.45;73.68;100403.14;462581;112;924166;-68
2021/06/14 03:00:00;;;;;;;13.53;9.99;;;;;;;18.47;73.54;100403.69;464210;112;923179;-69
2021/06/14 03:01:08;;;;;;;9.99;8.61;;;;;;;18.48;73.48;100405.35;463165;112;922411;-67
2021/06/14 03:02:12;;;;;;;10.96;9.45;;;;;;;18.49;73.39;100406.18;455387;114;922607;-67
2021/06/14 03:03:16;;;;;;;10.65;9.45;;;;;;;18.49;73.27;100409.78;456358;112;924229;-67
2021/06/14 03:04:22;;;;;;;13.11;9.48;;;;;;;18.49;73.29;100403.42;463776;112;931876;-67
2021/06/14 03:05:29;;;;;;;10.43;9.05;;;;;;;18.49;73.28;100406.18;463684;112;924156;-68
2021/06/14 03:06:33;;;;;;;11.41;8.74;;;;;;;18.49;73.26;100406.18;463584;112;924131;-69
2021/06/14 03:07:39;;;;;;;13.59;9.08;;;;;;;18.49;73.26;100408.94;463865;112;926346;-69
2021/06/14 03:08:44;;;;;;;12.27;8.54;;;;;;;18.50;73.27;100408.68;463195;112;922544;-70
2021/06/14 03:09:49;;;;;;;10.73;8.14;;;;;;;18.52;73.21;100413.94;463725;112;922568;-69
2021/06/14 03:10:55;;;;;;;9.57;8.77;;;;;;;18.53;73.19;100416.41;463610;112;924037;-69
2021/06/14 03:12:01;;;;;;;10.68;8.85;;;;;;;18.55;73.12;100418.94;464205;111;922706;-69
2021/06/14 03:13:06;;;;;;;11.32;9.01;;;;;;;18.56;73.10;100415.08;459196;113;925742;-68
2021/06/14 03:14:12;;;;;;;12.45;9.06;;;;;;;18.57;73.09;100417.58;459314;112;924019;-66
2021/06/14 03:15:17;;;;;;;9.47;8.56;;;;;;;18.56;73.08;100421.44;464207;112;931849;-70
2021/06/14 03:16:24;;;;;;;10.21;9.27;;;;;;;18.56;73.08;100415.91;463486;112;924073;-71
2021/06/14 03:17:29;;;;;;;14.17;10.22;;;;;;;18.56;73.09;100415.08;463803;112;922810;-69
2021/06/14 03:18:33;;;;;;;11.16;10.12;;;;;;;18.56;73.10;100417.84;464065;112;922579;-69
2021/06/14 03:19:39;;;;;;;11.90;10.70;;;;;;;18.56;73.11;100421.44;464113;112;924364;-68
2021/06/14 03:20:47;;;;;;;17.64;13.32;;;;;;;18.56;73.12;100421.44;463825;112;923136;-67
2021/06/14 03:21:51;;;;;;;15.01;13.07;;;;;;;18.55;73.09;100425.30;463144;112;925562;-67
2021/06/14 03:22:57;;;;;;;13.35;12.22;;;;;;;18.54;73.02;100420.87;463092;112;922505;-68
2021/06/14 03:24:02;;;;;;;12.64;11.68;;;;;;;18.56;73.03;100417.84;455956;114;922548;-68
2021/06/14 03:25:07;;;;;;;11.76;10.86;;;;;;;18.57;73.06;100427.80;446384;115;930349;-70
2021/06/14 03:26:13;;;;;;;10.14;9.27;;;;;;;18.59;73.04;100423.64;451747;112;922531;-69
2021/06/14 03:27:17;;;;;;;11.42;10.38;;;;;;;18.60;72.94;100425.31;463115;112;922504;-70
2021/06/14 03:28:23;;;;;;;11.11;10.20;;;;;;;18.63;72.93;100430.30;464021;112;922638;-67
2021/06/14 03:29:28;;;;;;;9.47;8.79;;;;;;;18.64;72.91;100426.41;464861;112;924522;-67
2021/06/14 03:30:33;;;;;;;9.94;9.01;;;;;;;18.65;72.85;100425.32;463728;112;922728;-68
2021/06/14 03:31:37;;;;;;;10.60;9.35;;;;;;;18.67;72.84;100422.30;464037;112;922972;-68
2021/06/14 03:32:44;;;;;;;9.71;8.59;;;;;;;18.69;72.86;100423.67;463431;112;922573;-69
2021/06/14 03:33:50;;;;;;;10.58;9.27;;;;;;;18.72;72.91;100425.91;463131;112;923022;-68
2021/06/14 03:34:54;;;;;;;10.50;9.33;;;;;;;18.75;72.96;100432.80;464185;112;922438;-69
2021/06/14 03:35:58;;;;;;;10.64;9.50;;;;;;;18.78;73.02;100428.67;463823;112;923180;-68
2021/06/14 03:37:02;;;;;;;11.37;10.01;;;;;;;18.80;72.97;100434.77;464902;112;923139;-69
2021/06/14 03:38:07;;;;;;;10.49;9.26;;;;;;;18.82;72.93;100435.30;463939;112;922881;-68
2021/06/14 03:39:11;;;;;;;10.19;9.12;;;;;;;18.84;72.87;100433.11;464367;112;922900;-68
2021/06/14 03:40:16;;;;;;;11.16;9.01;;;;;;;18.86;72.82;100428.13;465046;112;922482;-69
2021/06/14 03:41:20;;;;;;;15.44;8.71;;;;;;;18.89;72.78;100438.65;463923;111;922995;-66
2021/06/14 03:42:29;;;;;;;9.32;8.08;;;;;;;18.93;72.75;100432.30;463701;112;923028;-68
2021/06/14 03:43:29;;;;;;;7.90;7.15;;;;;;;18.97;72.66;100438.09;463747;112;923147;-68
2021/06/14 03:44:33;;;;;;;11.82;7.13;;;;;;;19.01;72.55;100440.06;463965;112;922521;-69
2021/06/14 03:45:37;;;;;;;10.12;6.78;;;;;;;19.06;72.47;100436.47;463925;111;932002;-69
2021/06/14 03:46:42;;;;;;;10.88;6.97;;;;;;;19.09;72.40;100430.37;463846;111;924782;-67
2021/06/14 03:47:51;;;;;;;8.65;7.84;;;;;;;19.13;72.27;100440.61;464531;112;930777;-68
2021/06/14 03:48:51;;;;;;;9.38;7.60;;;;;;;19.19;72.14;100438.67;463782;112;933021;-68
2021/06/14 03:49:55;;;;;;;13.96;7.42;;;;;;;19.22;72.07;100431.78;463393;112;923996;-70
2021/06/14 03:50:59;;;;;;;8.14;7.36;;;;;;;19.24;71.97;100438.68;464702;112;932455;-70
2021/06/14 03:52:04;;;;;;;8.00;7.28;;;;;;;19.28;71.88;100439.81;463263;112;925467;-69
2021/06/14 03:53:08;;;;;;;10.24;8.37;;;;;;;19.31;71.81;100436.48;463979;112;926985;-68
2021/06/14 03:54:12;;;;;;;11.48;9.08;;;;;;;19.34;71.73;100440.64;464319;112;925977;-70
2021/06/14 03:55:17;;;;;;;13.59;9.51;;;;;;;19.36;71.64;100441.17;463860;112;926925;-68
2021/06/14 03:56:22;;;;;;;13.82;10.58;;;;;;;19.37;71.61;100443.67;464030;112;924864;-69
2021/06/14 03:57:25;;;;;;;15.37;9.65;;;;;;;19.40;71.58;100445.91;464221;112;926857;-70
2021/06/14 03:58:30;;;;;;;15.59;10.42;;;;;;;19.43;71.47;100439.81;463839;112;926282;-69
2021/06/14 03:59:33;;;;;;;12.82;9.77;;;;;;;19.46;71.48;100444.80;463946;111;925596;-68
2021/06/14 04:00:39;;;;;;;10.62;9.58;;;;;;;19.51;71.45;100444.00;463609;112;922611;-69
2021/06/14 04:01:43;;;;;;;10.06;9.13;;;;;;;19.56;71.38;100441.23;464363;112;924536;-67
2021/06/14 04:02:47;;;;;;;12.84;10.11;;;;;;;19.61;71.37;100438.45;463746;111;931979;-69
2021/06/14 04:05:08;;;;;;;13.53;9.33;;;;;;;19.69;71.11;100434.28;464141;112;923877;-68
2021/06/14 04:06:20;;;;;;;8.70;7.89;;;;;;;19.73;70.91;100438.17;452111;112;924656;-67
2021/06/14 04:07:24;;;;;;;10.57;7.88;;;;;;;19.75;70.71;100439.53;460246;114;924844;-66
2021/06/14 04:08:28;;;;;;;8.07;7.18;;;;;;;19.76;70.60;100438.43;460168;112;924010;-69
2021/06/14 04:09:33;;;;;;;9.43;7.99;;;;;;;19.78;70.61;100436.22;457415;113;932812;-69
2021/06/14 04:10:39;;;;;;;9.10;8.26;;;;;;;19.80;70.52;100435.92;459060;112;924109;-68
2021/06/14 04:11:43;;;;;;;8.01;7.02;;;;;;;19.81;70.48;100441.19;463974;112;925393;-66
2021/06/14 04:12:47;;;;;;;7.35;6.44;;;;;;;19.83;70.47;100438.15;464528;112;923034;-68
2021/06/14 04:13:52;;;;;;;12.68;7.21;;;;;;;19.84;70.45;100437.88;463619;112;925336;-68
2021/06/14 04:14:57;;;;;;;9.77;7.04;;;;;;;19.86;70.34;100440.34;463999;112;930449;-67
2021/06/14 04:16:00;;;;;;;8.44;6.06;;;;;;;19.88;70.29;100443.67;464882;112;922867;-70
2021/06/14 04:17:06;;;;;;;7.16;6.46;;;;;;;19.88;70.24;100438.14;463813;112;933225;-69
2021/06/14 04:18:10;;;;;;;7.66;7.04;;;;;;;19.89;70.25;100446.17;463887;112;924052;-69
2021/06/14 04:19:14;;;;;;;10.26;7.21;;;;;;;19.91;70.30;100438.40;464045;112;924527;-68
2021/06/14 04:20:18;;;;;;;7.42;6.30;;;;;;;19.99;70.33;100439.78;465076;111;923042;-68
2021/06/14 04:21:22;;;;;;;10.24;7.22;;;;;;;19.99;70.33;100439.78;463272;112;922818;-69
2021/06/14 04:22:26;;;;;;;7.76;7.06;;;;;;;20.02;70.30;100443.91;464085;112;922469;-69
2021/06/14 04:23:30;;;;;;;10.99;6.77;;;;;;;20.06;70.22;100445.02;464386;112;930593;-70
2021/06/14 04:24:34;;;;;;;10.78;6.36;;;;;;;20.10;70.20;100433.11;463597;112;922431;-68
2021/06/14 04:25:37;;;;;;;10.68;7.35;;;;;;;20.14;70.09;100447.20;464107;112;930415;-69
2021/06/14 04:26:42;;;;;;;7.41;6.55;;;;;;;20.17;70.08;100439.18;464040;112;930500;-69
2021/06/14 04:27:46;;;;;;;8.64;6.53;;;;;;;20.21;70.11;100434.73;463521;112;922960;-69
2021/06/14 04:28:51;;;;;;;11.39;7.05;;;;;;;20.25;70.06;100444.13;463834;112;922681;-69
2021/06/14 04:29:54;;;;;;;9.79;6.72;;;;;;;20.29;69.94;100450.75;464096;112;922555;-68
2021/06/14 04:30:58;;;;;;;10.45;6.91;;;;;;;20.34;69.77;100441.65;463395;112;930315;-68
2021/06/14 04:32:02;;;;;;;9.14;7.22;;;;;;;20.37;69.66;100447.44;464327;112;922779;-70
2021/06/14 04:33:06;;;;;;;10.31;7.14;;;;;;;20.40;69.65;100449.63;464746;112;923018;-68
2021/06/14 04:34:10;;;;;;;11.05;7.18;;;;;;;20.43;69.66;100456.55;463861;112;922813;-70
2021/06/14 04:35:14;;;;;;;15.47;7.48;;;;;;;20.46;69.68;100452.38;464271;112;922837;-68
2021/06/14 04:36:18;;;;;;;9.52;7.32;;;;;;;20.49;69.61;100455.42;463697;112;922580;-68
2021/06/14 04:37:22;;;;;;;8.34;7.48;;;;;;;20.53;69.55;100456.52;463766;112;922983;-68
2021/06/14 04:38:26;;;;;;;13.49;8.49;;;;;;;20.57;69.46;100453.99;463417;112;922943;-69
2021/06/14 04:39:31;;;;;;;10.82;8.85;;;;;;;20.61;69.26;100452.33;465213;112;932905;-69
2021/06/14 04:40:36;;;;;;;12.23;8.16;;;;;;;20.62;69.12;100448.45;464049;112;930165;-69
2021/06/14 04:41:40;;;;;;;11.58;8.39;;;;;;;20.65;69.08;100451.48;463322;112;926022;-69
2021/06/14 04:42:44;;;;;;;12.92;9.16;;;;;;;20.67;69.08;100456.74;463344;112;925556;-67
2021/06/14 04:43:48;;;;;;;11.09;9.14;;;;;;;20.68;69.07;100452.83;464896;112;922596;-67
2021/06/14 04:44:52;;;;;;;15.35;9.32;;;;;;;20.69;69.06;100454.49;463760;112;922487;-71
2021/06/14 04:45:56;;;;;;;11.04;9.02;;;;;;;20.70;68.90;100447.84;463463;112;924562;-67
2021/06/14 04:47:01;;;;;;;12.82;11.18;;;;;;;20.71;68.77;100446.73;462995;112;927134;-67
2021/06/14 04:48:05;;;;;;;12.44;11.17;;;;;;;20.72;68.76;100460.31;464252;112;924832;-68
2021/06/14 04:49:09;;;;;;;14.35;11.28;;;;;;;20.74;68.82;100457.23;463949;111;926406;-67
2021/06/14 04:50:13;;;;;;;12.60;10.22;;;;;;;20.76;68.85;100466.94;464178;112;924487;-70
2021/06/14 04:51:17;;;;;;;17.96;10.44;;;;;;;20.79;68.93;100457.20;464395;112;924038;-69
2021/06/14 04:52:21;;;;;;;12.83;9.63;;;;;;;20.81;68.84;100457.77;464029;112;930326;-67
2021/06/14 04:53:25;;;;;;;13.26;10.24;;;;;;;20.84;68.76;100451.63;464391;112;922931;-66
2021/06/14 04:54:29;;;;;;;16.21;10.33;;;;;;;20.87;68.64;100455.79;464000;112;932755;-69
2021/06/14 04:55:33;;;;;;;16.82;11.19;;;;;;;20.88;68.54;100461.05;463527;112;924040;-68
2021/06/14 04:56:37;;;;;;;15.32;10.12;;;;;;;20.91;68.45;100466.02;463867;112;922625;-66
2021/06/14 04:57:42;;;;;;;11.69;10.35;;;;;;;20.94;68.37;100462.69;456589;112;924061;-68
2021/06/14 04:58:46;;;;;;;21.30;10.47;;;;;;;20.97;68.39;100458.50;456493;112;924081;-69
2021/06/14 04:59:49;;;;;;;11.25;10.02;;;;;;;21.01;68.28;100463.17;463947;112;924531;-69
2021/06/14 05:00:55;;;;;;;12.29;9.77;;;;;;;21.03;68.08;100466.50;464052;112;932366;-69
2021/06/14 05:02:00;;;;;;;12.59;9.97;;;;;;;21.06;67.97;100468.69;463342;112;924494;-70